createdAt,value
2018-07-22T00:03:19.746Z,15.1
2018-07-22T00:08:21.932Z,15
2018-07-22T00:13:24.244Z,15
2018-07-22T00:18:26.604Z,14.9
2018-07-22T00:23:28.942Z,14.8
2018-07-22T00:28:31.193Z,14.7
2018-07-22T00:33:33.402Z,14.6
2018-07-22T00:38:35.824Z,14.5
2018-07-22T00:43:38.107Z,14.5
2018-07-22T00:48:40.333Z,14.4
2018-07-22T00:53:42.666Z,14.3
2018-07-22T00:58:44.981Z,14.2
2018-07-22T01:03:47.255Z,14.2
2018-07-22T01:08:49.427Z,14.1
2018-07-22T01:13:51.817Z,14.1
2018-07-22T01:18:54.050Z,14
2018-07-22T01:23:56.450Z,13.9
2018-07-22T01:28:58.663Z,13.9
2018-07-22T01:34:01.010Z,13.8
2018-07-22T01:39:03.232Z,13.7
2018-07-22T01:44:05.675Z,13.7
2018-07-22T01:49:07.913Z,13.7
2018-07-22T01:54:10.194Z,13.8
2018-07-22T01:59:12.417Z,13.8
2018-07-22T02:04:14.780Z,13.7
2018-07-22T02:09:17.143Z,13.6
2018-07-22T02:14:19.395Z,13.6
2018-07-22T02:19:21.706Z,13.5
2018-07-22T02:24:23.885Z,13.5
2018-07-22T02:29:26.354Z,13.5
2018-07-22T02:34:28.545Z,13.4
2018-07-22T02:39:30.875Z,13.3
2018-07-22T02:44:33.071Z,13.3
2018-07-22T02:49:35.415Z,13.2
2018-07-22T02:54:37.661Z,13.2
2018-07-22T02:59:39.973Z,13.1
2018-07-22T03:04:42.288Z,13.1
2018-07-22T03:09:44.539Z,13
2018-07-22T03:14:46.906Z,12.9
2018-07-22T03:19:49.167Z,12.9
2018-07-22T03:24:51.460Z,12.9
2018-07-22T03:29:53.674Z,12.9
2018-07-22T03:34:56.005Z,13
2018-07-22T03:39:58.384Z,13
2018-07-22T03:45:00.688Z,13.1
2018-07-22T03:50:02.881Z,13.1
2018-07-22T03:55:05.244Z,13.2
2018-07-22T04:00:07.615Z,13.3
2018-07-22T04:05:09.827Z,13.5
2018-07-22T04:10:12.044Z,13.4
2018-07-22T04:15:14.365Z,13.3
2018-07-22T04:20:16.669Z,13.2
2018-07-22T04:25:19.006Z,13.3
2018-07-22T04:30:21.315Z,13.4
2018-07-22T04:35:23.540Z,13.6
2018-07-22T04:40:25.880Z,13.6
2018-07-22T04:45:28.128Z,13.7
2018-07-22T04:50:30.450Z,13.7
2018-07-22T04:55:32.789Z,13.8
2018-07-22T05:00:35.119Z,14
2018-07-22T05:05:37.325Z,14.1
2018-07-22T05:10:39.554Z,14.2
2018-07-22T05:15:41.959Z,14.4
2018-07-22T05:20:44.212Z,14.6
2018-07-22T05:25:46.529Z,14.7
2018-07-22T05:30:48.795Z,14.8
2018-07-22T05:35:51.045Z,15
2018-07-22T05:40:53.446Z,15.2
2018-07-22T05:45:55.689Z,15.3
2018-07-22T05:50:58.004Z,15.5
2018-07-22T05:56:00.236Z,15.7
2018-07-22T06:01:02.498Z,16
2018-07-22T06:06:04.881Z,16.200001
2018-07-22T06:11:07.166Z,16.4
2018-07-22T06:16:09.526Z,16.700001
2018-07-22T06:21:11.758Z,17
2018-07-22T06:26:14.055Z,17.4
2018-07-22T06:31:16.457Z,17.6
2018-07-22T06:36:18.777Z,17.9
2018-07-22T06:41:21.016Z,18.299999
2018-07-22T06:46:23.208Z,18.6
2018-07-22T06:51:25.509Z,19
2018-07-22T06:56:27.854Z,19.4
2018-07-22T07:01:30.118Z,19.799999
2018-07-22T07:06:32.499Z,20.1
2018-07-22T07:11:34.640Z,20.6
2018-07-22T07:16:37.082Z,20.9
2018-07-22T07:21:39.351Z,21.4
2018-07-22T07:26:41.622Z,21.700001
2018-07-22T07:31:43.871Z,22.200001
2018-07-22T07:36:46.126Z,22.5
2018-07-22T07:41:48.583Z,23.1
2018-07-22T07:46:50.836Z,23.299999
2018-07-22T07:51:53.112Z,23.299999
2018-07-22T07:56:55.285Z,23.4
2018-07-22T08:01:57.614Z,24.1
2018-07-22T08:06:59.908Z,24.4
2018-07-22T08:12:02.276Z,24.700001
2018-07-22T08:17:04.568Z,24.5
2018-07-22T08:22:06.888Z,24.4
2018-07-22T08:27:09.167Z,24.700001
2018-07-22T08:32:11.506Z,25.1
2018-07-22T08:37:13.934Z,25.700001
2018-07-22T08:42:15.985Z,26.299999
2018-07-22T08:47:18.264Z,26.6
2018-07-22T08:52:20.602Z,26.1
2018-07-22T08:57:22.890Z,25.5
2018-07-22T09:02:25.087Z,25.5
2018-07-22T09:07:27.480Z,26.200001
2018-07-22T09:12:29.654Z,26.799999
2018-07-22T09:17:32.077Z,27.4
2018-07-22T09:22:34.321Z,27.799999
2018-07-22T09:27:36.631Z,28.299999
2018-07-22T09:32:38.972Z,28.6
2018-07-22T09:37:41.310Z,29.200001
2018-07-22T09:42:43.599Z,29.799999
2018-07-22T09:47:45.777Z,30.299999
2018-07-22T09:52:48.036Z,30.5
2018-07-22T09:57:50.448Z,30.6
2018-07-22T10:02:52.642Z,30.799999
2018-07-22T10:07:55.034Z,30.799999
2018-07-22T10:12:57.230Z,30.700001
2018-07-22T10:17:59.546Z,31.1
2018-07-22T10:23:01.916Z,31.9
2018-07-22T10:28:04.266Z,31.700001
2018-07-22T10:33:06.435Z,32.200001
2018-07-22T10:38:08.746Z,32
2018-07-22T10:43:11.091Z,32
2018-07-22T10:48:13.296Z,32.400002
2018-07-22T10:53:15.620Z,32.700001
2018-07-22T10:58:17.934Z,33.099998
2018-07-22T11:03:20.269Z,33.299999
2018-07-22T11:08:22.590Z,33.700001
2018-07-22T11:13:24.815Z,33.599998
2018-07-22T11:18:27.094Z,33.099998
2018-07-22T11:23:29.359Z,32.900002
2018-07-22T11:28:31.715Z,33.099998
2018-07-22T11:33:34.065Z,33.299999
2018-07-22T11:38:36.296Z,33.400002
2018-07-22T11:43:38.642Z,33.700001
2018-07-22T11:48:40.886Z,34.299999
2018-07-22T11:53:43.190Z,33.900002
2018-07-22T11:58:45.372Z,32.700001
2018-07-22T12:03:47.763Z,32.299999
2018-07-22T12:08:50.032Z,33.099998
2018-07-22T12:13:52.283Z,33
2018-07-22T12:18:54.721Z,32.900002
2018-07-22T12:23:56.898Z,32.200001
2018-07-22T12:28:59.265Z,31.6
2018-07-22T12:34:01.484Z,32.700001
2018-07-22T12:39:03.898Z,33.200001
2018-07-22T12:44:06.105Z,34.200001
2018-07-22T12:49:08.425Z,34.200001
2018-07-22T12:54:10.674Z,33.599998
2018-07-22T12:59:13.255Z,34.099998
2018-07-22T13:04:15.270Z,34.799999
2018-07-22T13:09:17.584Z,34.900002
2018-07-22T13:14:19.886Z,34.900002
2018-07-22T13:19:22.278Z,33.799999
2018-07-22T13:24:24.546Z,33.200001
2018-07-22T13:29:26.794Z,33.700001
2018-07-22T13:34:29.031Z,34.099998
2018-07-22T13:39:31.379Z,33.400002
2018-07-22T13:44:33.623Z,33.599998
2018-07-22T13:49:35.975Z,33.299999
2018-07-22T13:54:38.193Z,31.9
2018-07-22T13:59:40.681Z,32.299999
2018-07-22T14:04:42.814Z,32.900002
2018-07-22T14:09:45.156Z,32.799999
2018-07-22T14:14:47.346Z,33.200001
2018-07-22T14:19:49.814Z,32.599998
2018-07-22T14:24:52.103Z,32.599998
2018-07-22T14:29:54.344Z,32.799999
2018-07-22T14:34:56.575Z,32.900002
2018-07-22T14:39:58.828Z,32.200001
2018-07-22T14:45:01.143Z,32.099998
2018-07-22T14:50:03.572Z,33
2018-07-22T14:55:05.833Z,33.400002
2018-07-22T15:00:08.050Z,33.299999
2018-07-22T15:05:10.454Z,33.5
2018-07-22T15:10:12.665Z,33.5
2018-07-22T15:15:14.886Z,33.599998
2018-07-22T15:20:17.135Z,33.299999
2018-07-22T15:25:19.595Z,33.299999
2018-07-22T15:30:21.813Z,32.599998
2018-07-22T15:35:24.192Z,32.400002
2018-07-22T15:40:26.446Z,32.599998
2018-07-22T15:45:28.792Z,32.5
2018-07-22T15:50:32.595Z,32.5
2018-07-22T15:55:33.492Z,32.200001
2018-07-22T16:00:35.571Z,31.799999
2018-07-22T16:05:38.084Z,31.5
2018-07-22T16:10:40.141Z,31.4
2018-07-22T16:15:42.477Z,30.9
2018-07-22T16:20:44.770Z,30.5
2018-07-22T16:25:47.076Z,30.5
2018-07-22T16:30:49.362Z,30.5
2018-07-22T16:35:51.685Z,30.299999
2018-07-22T16:40:54.087Z,29.700001
2018-07-22T16:50:58.449Z,29.299999
2018-07-22T16:56:00.908Z,29
2018-07-22T17:01:03.053Z,28.6
2018-07-22T17:06:05.497Z,28.200001
2018-07-22T17:11:07.721Z,27.799999
2018-07-22T17:16:09.991Z,27.4
2018-07-22T17:21:12.431Z,27.1
2018-07-22T17:26:14.680Z,26.9
2018-07-22T17:31:16.946Z,26.4
2018-07-22T17:36:19.174Z,26.200001
2018-07-22T17:41:21.473Z,26.1
2018-07-22T17:46:23.806Z,25.799999
2018-07-22T17:51:26.122Z,25.9
2018-07-22T17:56:28.720Z,26
2018-07-22T18:01:30.731Z,26.1
2018-07-22T18:06:32.868Z,25.9
2018-07-22T18:11:35.400Z,25.5
2018-07-22T18:16:37.620Z,25.299999
2018-07-22T18:21:39.776Z,25.200001
2018-07-22T18:26:42.143Z,25.200001
2018-07-22T18:31:44.446Z,25.200001
2018-07-22T18:36:46.814Z,25
2018-07-22T18:41:48.994Z,24.9
2018-07-22T18:46:51.323Z,24.799999
2018-07-22T18:51:53.727Z,24.700001
2018-07-22T18:56:56.093Z,24.5
2018-07-22T19:01:58.168Z,24.5
2018-07-22T19:07:00.564Z,24.299999
2018-07-22T19:12:02.871Z,24.299999
2018-07-22T19:17:05.129Z,24.200001
2018-07-22T19:22:07.396Z,24.1
2018-07-22T19:27:09.629Z,24
2018-07-22T19:32:12.037Z,23.799999
2018-07-22T19:37:14.268Z,23.700001
2018-07-22T19:42:16.512Z,23.5
2018-07-22T19:47:18.922Z,23.299999
2018-07-22T19:52:21.179Z,23.1
2018-07-22T19:57:23.512Z,23
2018-07-22T20:02:25.734Z,22.799999
2018-07-22T20:07:28.070Z,22.700001
2018-07-22T20:12:30.332Z,22.6
2018-07-22T20:17:32.631Z,22.5
2018-07-22T20:22:34.981Z,22.4
2018-07-22T20:27:37.295Z,22.299999
2018-07-22T20:32:39.492Z,22.1
2018-07-22T20:37:41.818Z,22.1
2018-07-22T20:42:44.046Z,22
2018-07-22T20:47:46.439Z,22
2018-07-22T20:52:48.791Z,21.9
2018-07-22T20:57:50.956Z,21.700001
2018-07-22T21:02:53.277Z,21.6
2018-07-22T21:07:55.646Z,21.5
2018-07-22T21:12:57.863Z,21.4
2018-07-22T21:18:00.169Z,21.299999
2018-07-22T21:23:02.477Z,21.1
2018-07-22T21:28:04.808Z,20.9
2018-07-22T21:33:07.054Z,20.799999
2018-07-22T21:38:09.381Z,20.6
2018-07-22T21:43:11.590Z,20.6
2018-07-22T21:48:13.837Z,20.6
2018-07-22T21:53:16.157Z,20.6
2018-07-22T21:58:18.554Z,20.5
2018-07-22T22:03:20.845Z,20.5
2018-07-22T22:08:23.133Z,20.5
2018-07-22T22:13:25.445Z,20.4
2018-07-22T22:18:27.763Z,20.4
2018-07-22T22:23:30.002Z,20.4
2018-07-22T22:28:32.422Z,20.299999
2018-07-22T22:33:34.541Z,20.200001
2018-07-22T22:38:36.829Z,20.1
2018-07-22T22:43:39.175Z,20.1
2018-07-22T22:48:41.422Z,20.1
2018-07-22T22:53:43.907Z,20.1
2018-07-22T22:58:46.047Z,20.1
2018-07-22T23:03:48.418Z,20.1
2018-07-22T23:08:50.720Z,20
2018-07-22T23:13:52.874Z,19.9
2018-07-22T23:18:55.186Z,19.799999
2018-07-22T23:23:57.495Z,19.799999
2018-07-22T23:28:59.881Z,19.700001
2018-07-22T23:34:02.162Z,19.700001
2018-07-22T23:39:04.457Z,19.6
2018-07-22T23:44:06.691Z,19.6
2018-07-22T23:49:08.961Z,19.6
2018-07-22T23:54:11.188Z,19.6
2018-07-22T23:59:13.634Z,19.5
